sensor_id;sensor_type;location;lat;lon;timestamp;temperature;humidity
9768;DHT22;4923;52.520;13.494;2023-04-24T00:02:14;10.80;1.00
9768;DHT22;4923;52.520;13.494;2023-04-24T00:05:01;10.80;1.00
9768;DHT22;4923;52.520;13.494;2023-04-24T00:07:48;10.80;99.90
9768;DHT22;4923;52.520;13.494;2023-04-24T00:10:38;10.80;99.90
9768;DHT22;4923;52.520;13.494;2023-04-24T00:13:24;10.80;1.00
9768;DHT22;4923;52.520;13.494;2023-04-24T00:16:13;10.80;1.00
9768;DHT22;4923;52.520;13.494;2023-04-24T00:19:01;10.70;1.00
9768;DHT22;4923;52.520;13.494;2023-04-24T00:21:48;10.70;1.00
9768;DHT22;4923;52.520;13.494;2023-04-24T00:24:35;10.80;1.00
9768;DHT22;4923;52.520;13.494;2023-04-24T00:27:22;10.70;1.00
9768;DHT22;4923;52.520;13.494;2023-04-24T00:30:10;10.70;97.70
9768;DHT22;4923;52.520;13.494;2023-04-24T00:32:57;10.70;1.00
9768;DHT22;4923;52.520;13.494;2023-04-24T00:35:45;10.70;99.90
9768;DHT22;4923;52.520;13.494;2023-04-24T00:38:32;10.70;99.90
9768;DHT22;4923;52.520;13.494;2023-04-24T00:41:19;10.60;1.00
9768;DHT22;4923;52.520;13.494;2023-04-24T00:44:06;10.60;1.00
9768;DHT22;4923;52.520;13.494;2023-04-24T00:46:54;10.60;27.60
9768;DHT22;4923;52.520;13.494;2023-04-24T00:49:41;10.60;1.00
9768;DHT22;4923;52.520;13.494;2023-04-24T00:52:29;10.60;1.00
9768;DHT22;4923;52.520;13.494;2023-04-24T00:55:17;10.60;1.00
9768;DHT22;4923;52.520;13.494;2023-04-24T00:58:05;10.50;99.90
9768;DHT22;4923;52.520;13.494;2023-04-24T01:00:52;10.60;88.20
9768;DHT22;4923;52.520;13.494;2023-04-24T01:03:40;10.60;99.90
9768;DHT22;4923;52.520;13.494;2023-04-24T01:06:28;10.50;1.00
9768;DHT22;4923;52.520;13.494;2023-04-24T01:09:18;10.60;1.00
9768;DHT22;4923;52.520;13.494;2023-04-24T01:12:06;10.60;1.00
9768;DHT22;4923;52.520;13.494;2023-04-24T01:14:53;10.60;1.00
9768;DHT22;4923;52.520;13.494;2023-04-24T01:17:40;10.60;1.00
9768;DHT22;4923;52.520;13.494;2023-04-24T01:20:27;10.70;99.90
9768;DHT22;4923;52.520;13.494;2023-04-24T01:23:17;10.70;1.00
9768;DHT22;4923;52.520;13.494;2023-04-24T01:26:04;10.70;1.00
9768;DHT22;4923;52.520;13.494;2023-04-24T01:28:51;10.70;99.90
9768;DHT22;4923;52.520;13.494;2023-04-24T01:31:38;10.70;1.00
9768;DHT22;4923;52.520;13.494;2023-04-24T01:34:26;10.70;99.90
9768;DHT22;4923;52.520;13.494;2023-04-24T01:37:13;10.70;1.00
9768;DHT22;4923;52.520;13.494;2023-04-24T01:40:03;10.80;99.90
9768;DHT22;4923;52.520;13.494;2023-04-24T01:42:50;10.80;99.90
9768;DHT22;4923;52.520;13.494;2023-04-24T01:45:37;10.70;1.00
9768;DHT22;4923;52.520;13.494;2023-04-24T01:48:24;10.70;1.00
9768;DHT22;4923;52.520;13.494;2023-04-24T01:51:11;10.70;1.00
9768;DHT22;4923;52.520;13.494;2023-04-24T01:53:59;10.70;1.00
9768;DHT22;4923;52.520;13.494;2023-04-24T01:56:47;10.70;1.00
9768;DHT22;4923;52.520;13.494;2023-04-24T01:59:34;10.70;1.00
9768;DHT22;4923;52.520;13.494;2023-04-24T02:02:22;10.70;99.90
9768;DHT22;4923;52.520;13.494;2023-04-24T02:05:09;10.70;99.90
9768;DHT22;4923;52.520;13.494;2023-04-24T02:07:56;10.70;99.90
9768;DHT22;4923;52.520;13.494;2023-04-24T02:10:43;10.70;99.90
9768;DHT22;4923;52.520;13.494;2023-04-24T02:13:31;10.70;99.90
9768;DHT22;4923;52.520;13.494;2023-04-24T02:16:18;10.70;99.90
9768;DHT22;4923;52.520;13.494;2023-04-24T02:19:05;10.70;1.00
9768;DHT22;4923;52.520;13.494;2023-04-24T02:21:52;10.70;99.90
9768;DHT22;4923;52.520;13.494;2023-04-24T02:24:39;10.70;1.00
9768;DHT22;4923;52.520;13.494;2023-04-24T02:27:26;10.70;1.00
9768;DHT22;4923;52.520;13.494;2023-04-24T02:30:14;10.70;99.90
9768;DHT22;4923;52.520;13.494;2023-04-24T02:33:01;10.80;1.00
9768;DHT22;4923;52.520;13.494;2023-04-24T02:35:48;10.80;1.00
9768;DHT22;4923;52.520;13.494;2023-04-24T02:38:35;10.80;1.00
9768;DHT22;4923;52.520;13.494;2023-04-24T02:41:22;10.80;99.90
9768;DHT22;4923;52.520;13.494;2023-04-24T02:44:09;10.70;99.90
9768;DHT22;4923;52.520;13.494;2023-04-24T02:46:57;10.80;1.00
9768;DHT22;4923;52.520;13.494;2023-04-24T02:49:44;10.80;1.00
9768;DHT22;4923;52.520;13.494;2023-04-24T02:52:31;10.80;99.90
9768;DHT22;4923;52.520;13.494;2023-04-24T02:55:18;10.80;1.00
9768;DHT22;4923;52.520;13.494;2023-04-24T02:58:05;10.80;1.00
9768;DHT22;4923;52.520;13.494;2023-04-24T03:00:53;10.80;99.90
9768;DHT22;4923;52.520;13.494;2023-04-24T03:03:42;10.90;1.00
9768;DHT22;4923;52.520;13.494;2023-04-24T03:06:29;10.90;99.90
9768;DHT22;4923;52.520;13.494;2023-04-24T03:09:17;10.90;1.00
9768;DHT22;4923;52.520;13.494;2023-04-24T03:12:03;11.00;99.90
9768;DHT22;4923;52.520;13.494;2023-04-24T03:14:50;11.00;1.00
9768;DHT22;4923;52.520;13.494;2023-04-24T03:17:37;11.00;99.90
9768;DHT22;4923;52.520;13.494;2023-04-24T03:20:25;11.10;1.00
9768;DHT22;4923;52.520;13.494;2023-04-24T03:23:12;11.10;1.00
9768;DHT22;4923;52.520;13.494;2023-04-24T03:25:59;11.20;99.90
9768;DHT22;4923;52.520;13.494;2023-04-24T03:28:46;11.20;1.00
9768;DHT22;4923;52.520;13.494;2023-04-24T03:31:33;11.30;1.00
9768;DHT22;4923;52.520;13.494;2023-04-24T03:34:19;11.30;1.00
9768;DHT22;4923;52.520;13.494;2023-04-24T03:37:08;11.40;1.00
9768;DHT22;4923;52.520;13.494;2023-04-24T03:39:54;11.40;1.00
9768;DHT22;4923;52.520;13.494;2023-04-24T03:42:41;11.50;1.00
9768;DHT22;4923;52.520;13.494;2023-04-24T03:45:29;11.50;1.00
9768;DHT22;4923;52.520;13.494;2023-04-24T03:48:16;11.50;99.90
9768;DHT22;4923;52.520;13.494;2023-04-24T03:51:03;11.60;1.00
9768;DHT22;4923;52.520;13.494;2023-04-24T03:53:51;11.60;1.00
9768;DHT22;4923;52.520;13.494;2023-04-24T03:56:38;11.60;99.90
9768;DHT22;4923;52.520;13.494;2023-04-24T03:59:25;11.60;1.00
9768;DHT22;4923;52.520;13.494;2023-04-24T04:02:12;11.60;99.90
9768;DHT22;4923;52.520;13.494;2023-04-24T04:04:58;11.60;99.90
9768;DHT22;4923;52.520;13.494;2023-04-24T04:07:45;11.70;99.90
9768;DHT22;4923;52.520;13.494;2023-04-24T04:10:33;11.70;1.00
9768;DHT22;4923;52.520;13.494;2023-04-24T04:13:20;11.80;99.90
9768;DHT22;4923;52.520;13.494;2023-04-24T04:16:08;11.80;1.00
9768;DHT22;4923;52.520;13.494;2023-04-24T04:18:55;11.80;1.00
9768;DHT22;4923;52.520;13.494;2023-04-24T04:21:42;11.90;1.00
9768;DHT22;4923;52.520;13.494;2023-04-24T04:24:31;11.90;99.90
9768;DHT22;4923;52.520;13.494;2023-04-24T04:27:19;11.90;1.00
9768;DHT22;4923;52.520;13.494;2023-04-24T04:30:07;11.90;99.90
9768;DHT22;4923;52.520;13.494;2023-04-24T04:32:55;11.90;1.00
9768;DHT22;4923;52.520;13.494;2023-04-24T04:35:42;11.90;1.00
9768;DHT22;4923;52.520;13.494;2023-04-24T04:38:29;12.00;1.00
9768;DHT22;4923;52.520;13.494;2023-04-24T04:41:16;12.00;1.00
9768;DHT22;4923;52.520;13.494;2023-04-24T04:44:05;12.00;1.00
9768;DHT22;4923;52.520;13.494;2023-04-24T04:46:52;12.10;99.90
9768;DHT22;4923;52.520;13.494;2023-04-24T04:49:41;12.10;99.90
9768;DHT22;4923;52.520;13.494;2023-04-24T04:52:28;12.10;1.00
9768;DHT22;4923;52.520;13.494;2023-04-24T04:55:15;12.10;99.90
9768;DHT22;4923;52.520;13.494;2023-04-24T04:58:02;12.20;1.00
9768;DHT22;4923;52.520;13.494;2023-04-24T05:00:50;12.30;1.00
9768;DHT22;4923;52.520;13.494;2023-04-24T05:03:37;12.40;1.00
9768;DHT22;4923;52.520;13.494;2023-04-24T05:06:24;12.50;99.90
9768;DHT22;4923;52.520;13.494;2023-04-24T05:09:11;12.60;1.00
9768;DHT22;4923;52.520;13.494;2023-04-24T05:11:58;12.60;1.00
9768;DHT22;4923;52.520;13.494;2023-04-24T05:14:45;12.60;1.00
9768;DHT22;4923;52.520;13.494;2023-04-24T05:17:33;12.70;1.00
9768;DHT22;4923;52.520;13.494;2023-04-24T05:20:20;12.80;99.90
9768;DHT22;4923;52.520;13.494;2023-04-24T05:23:07;12.90;1.00
9768;DHT22;4923;52.520;13.494;2023-04-24T05:25:54;12.90;1.00
9768;DHT22;4923;52.520;13.494;2023-04-24T05:28:41;13.00;99.90
9768;DHT22;4923;52.520;13.494;2023-04-24T05:31:27;13.00;99.90
9768;DHT22;4923;52.520;13.494;2023-04-24T05:34:16;13.20;1.00
9768;DHT22;4923;52.520;13.494;2023-04-24T05:37:02;13.20;1.00
9768;DHT22;4923;52.520;13.494;2023-04-24T05:39:53;13.30;99.90
9768;DHT22;4923;52.520;13.494;2023-04-24T05:42:40;13.50;99.90
9768;DHT22;4923;52.520;13.494;2023-04-24T05:45:27;13.50;99.90
9768;DHT22;4923;52.520;13.494;2023-04-24T05:48:14;13.70;99.90
9768;DHT22;4923;52.520;13.494;2023-04-24T05:51:03;13.80;99.90
9768;DHT22;4923;52.520;13.494;2023-04-24T05:53:49;14.00;1.00
9768;DHT22;4923;52.520;13.494;2023-04-24T05:56:36;14.10;1.00
9768;DHT22;4923;52.520;13.494;2023-04-24T05:59:23;14.20;1.00
9768;DHT22;4923;52.520;13.494;2023-04-24T06:02:11;14.20;1.00
9768;DHT22;4923;52.520;13.494;2023-04-24T06:04:58;14.20;1.00
9768;DHT22;4923;52.520;13.494;2023-04-24T06:07:47;14.20;1.00
9768;DHT22;4923;52.520;13.494;2023-04-24T06:10:34;14.20;1.00
9768;DHT22;4923;52.520;13.494;2023-04-24T06:13:21;14.30;1.00
9768;DHT22;4923;52.520;13.494;2023-04-24T06:16:08;14.50;99.90
9768;DHT22;4923;52.520;13.494;2023-04-24T06:18:55;14.50;99.90
9768;DHT22;4923;52.520;13.494;2023-04-24T06:21:42;14.50;99.90
9768;DHT22;4923;52.520;13.494;2023-04-24T06:24:30;14.60;99.90
9768;DHT22;4923;52.520;13.494;2023-04-24T06:27:17;14.70;99.90
9768;DHT22;4923;52.520;13.494;2023-04-24T06:30:04;14.80;99.90
9768;DHT22;4923;52.520;13.494;2023-04-24T06:32:52;15.10;99.90
9768;DHT22;4923;52.520;13.494;2023-04-24T06:35:39;15.00;99.90
9768;DHT22;4923;52.520;13.494;2023-04-24T06:38:26;14.90;99.90
9768;DHT22;4923;52.520;13.494;2023-04-24T06:41:14;15.00;99.90
9768;DHT22;4923;52.520;13.494;2023-04-24T06:44:01;15.00;97.60
9768;DHT22;4923;52.520;13.494;2023-04-24T06:46:48;15.20;91.70
9768;DHT22;4923;52.520;13.494;2023-04-24T06:49:35;15.50;60.10
9768;DHT22;4923;52.520;13.494;2023-04-24T06:52:22;15.60;10.00
9768;DHT22;4923;52.520;13.494;2023-04-24T06:55:09;15.80;1.00
9768;DHT22;4923;52.520;13.494;2023-04-24T06:57:58;16.10;1.00
9768;DHT22;4923;52.520;13.494;2023-04-24T07:00:45;16.30;1.00
9768;DHT22;4923;52.520;13.494;2023-04-24T07:03:32;16.60;1.00
9768;DHT22;4923;52.520;13.494;2023-04-24T07:06:19;16.80;1.00
9768;DHT22;4923;52.520;13.494;2023-04-24T07:09:08;17.10;1.00
9768;DHT22;4923;52.520;13.494;2023-04-24T07:11:55;17.20;1.00
9768;DHT22;4923;52.520;13.494;2023-04-24T07:14:44;17.40;1.00
9768;DHT22;4923;52.520;13.494;2023-04-24T07:17:31;17.20;1.00
9768;DHT22;4923;52.520;13.494;2023-04-24T07:20:18;17.10;1.00
9768;DHT22;4923;52.520;13.494;2023-04-24T07:23:05;17.10;1.00
9768;DHT22;4923;52.520;13.494;2023-04-24T07:25:51;16.70;1.00
9768;DHT22;4923;52.520;13.494;2023-04-24T07:28:39;16.80;1.00
9768;DHT22;4923;52.520;13.494;2023-04-24T07:31:27;16.90;1.00
9768;DHT22;4923;52.520;13.494;2023-04-24T07:34:14;17.00;1.00
9768;DHT22;4923;52.520;13.494;2023-04-24T07:37:01;18.40;1.00
9768;DHT22;4923;52.520;13.494;2023-04-24T07:39:48;18.90;1.00
9768;DHT22;4923;52.520;13.494;2023-04-24T07:42:35;19.10;1.00
9768;DHT22;4923;52.520;13.494;2023-04-24T07:45:22;18.70;1.00
9768;DHT22;4923;52.520;13.494;2023-04-24T07:48:13;18.60;1.00
9768;DHT22;4923;52.520;13.494;2023-04-24T07:51:02;18.50;1.00
9768;DHT22;4923;52.520;13.494;2023-04-24T07:53:49;18.20;1.00
9768;DHT22;4923;52.520;13.494;2023-04-24T07:56:36;18.00;1.00
9768;DHT22;4923;52.520;13.494;2023-04-24T07:59:24;17.70;1.00
9768;DHT22;4923;52.520;13.494;2023-04-24T08:02:11;17.40;1.00
9768;DHT22;4923;52.520;13.494;2023-04-24T08:04:59;17.20;1.00
9768;DHT22;4923;52.520;13.494;2023-04-24T08:07:46;17.30;1.00
9768;DHT22;4923;52.520;13.494;2023-04-24T08:10:34;17.10;1.00
9768;DHT22;4923;52.520;13.494;2023-04-24T08:13:22;17.20;1.00
9768;DHT22;4923;52.520;13.494;2023-04-24T08:16:08;17.40;1.00
9768;DHT22;4923;52.520;13.494;2023-04-24T08:18:55;17.70;1.00
9768;DHT22;4923;52.520;13.494;2023-04-24T08:21:43;17.80;1.00
9768;DHT22;4923;52.520;13.494;2023-04-24T08:24:30;17.80;1.00
9768;DHT22;4923;52.520;13.494;2023-04-24T08:27:17;17.70;1.00
9768;DHT22;4923;52.520;13.494;2023-04-24T08:30:05;17.70;1.00
9768;DHT22;4923;52.520;13.494;2023-04-24T08:32:52;17.60;1.00
9768;DHT22;4923;52.520;13.494;2023-04-24T08:35:39;17.90;1.00
9768;DHT22;4923;52.520;13.494;2023-04-24T08:38:27;18.20;1.00
9768;DHT22;4923;52.520;13.494;2023-04-24T08:41:14;18.60;1.00
9768;DHT22;4923;52.520;13.494;2023-04-24T08:44:02;19.00;1.00
9768;DHT22;4923;52.520;13.494;2023-04-24T08:46:48;19.40;1.00
9768;DHT22;4923;52.520;13.494;2023-04-24T08:49:37;19.40;1.00
9768;DHT22;4923;52.520;13.494;2023-04-24T08:52:25;19.70;1.00
9768;DHT22;4923;52.520;13.494;2023-04-24T08:55:15;19.80;1.00
9768;DHT22;4923;52.520;13.494;2023-04-24T08:58:04;20.20;1.00
9768;DHT22;4923;52.520;13.494;2023-04-24T09:00:51;20.30;1.00
9768;DHT22;4923;52.520;13.494;2023-04-24T09:03:38;20.60;1.00
9768;DHT22;4923;52.520;13.494;2023-04-24T09:06:25;20.60;1.00
9768;DHT22;4923;52.520;13.494;2023-04-24T09:09:13;20.30;1.00
9768;DHT22;4923;52.520;13.494;2023-04-24T09:12:01;20.20;1.00
9768;DHT22;4923;52.520;13.494;2023-04-24T09:14:49;20.30;1.00
9768;DHT22;4923;52.520;13.494;2023-04-24T09:17:37;20.60;1.00
9768;DHT22;4923;52.520;13.494;2023-04-24T09:20:24;20.70;1.00
9768;DHT22;4923;52.520;13.494;2023-04-24T09:23:11;20.80;1.00
9768;DHT22;4923;52.520;13.494;2023-04-24T09:26:04;20.90;1.00
9768;DHT22;4923;52.520;13.494;2023-04-24T09:28:53;20.80;1.00
9768;DHT22;4923;52.520;13.494;2023-04-24T09:31:40;20.50;1.00
9768;DHT22;4923;52.520;13.494;2023-04-24T09:34:27;20.50;1.00
9768;DHT22;4923;52.520;13.494;2023-04-24T09:37:27;20.60;1.00
9768;DHT22;4923;52.520;13.494;2023-04-24T09:40:16;20.40;1.00
9768;DHT22;4923;52.520;13.494;2023-04-24T09:43:03;20.40;1.00
9768;DHT22;4923;52.520;13.494;2023-04-24T09:45:55;20.40;1.00
9768;DHT22;4923;52.520;13.494;2023-04-24T09:48:42;20.50;1.00
9768;DHT22;4923;52.520;13.494;2023-04-24T09:51:34;20.00;1.00
9768;DHT22;4923;52.520;13.494;2023-04-24T09:54:22;19.80;1.00
9768;DHT22;4923;52.520;13.494;2023-04-24T09:57:10;19.60;1.00
9768;DHT22;4923;52.520;13.494;2023-04-24T09:59:57;19.30;1.00
9768;DHT22;4923;52.520;13.494;2023-04-24T10:02:49;19.20;1.00
9768;DHT22;4923;52.520;13.494;2023-04-24T10:05:37;19.20;1.00
9768;DHT22;4923;52.520;13.494;2023-04-24T10:08:24;19.20;1.00
9768;DHT22;4923;52.520;13.494;2023-04-24T10:11:12;19.50;1.00
9768;DHT22;4923;52.520;13.494;2023-04-24T10:13:59;19.90;1.00
9768;DHT22;4923;52.520;13.494;2023-04-24T10:16:47;20.50;1.00
9768;DHT22;4923;52.520;13.494;2023-04-24T10:19:35;20.70;1.00
9768;DHT22;4923;52.520;13.494;2023-04-24T10:22:23;20.90;1.00
9768;DHT22;4923;52.520;13.494;2023-04-24T10:25:11;20.90;1.00
9768;DHT22;4923;52.520;13.494;2023-04-24T10:28:00;21.10;1.00
9768;DHT22;4923;52.520;13.494;2023-04-24T10:30:47;21.20;1.00
9768;DHT22;4923;52.520;13.494;2023-04-24T10:33:35;21.20;1.00
9768;DHT22;4923;52.520;13.494;2023-04-24T10:36:24;21.10;1.00
9768;DHT22;4923;52.520;13.494;2023-04-24T10:39:14;21.10;1.00
9768;DHT22;4923;52.520;13.494;2023-04-24T10:42:01;21.20;1.00
9768;DHT22;4923;52.520;13.494;2023-04-24T10:44:48;21.20;1.00
9768;DHT22;4923;52.520;13.494;2023-04-24T10:47:39;21.30;1.00
9768;DHT22;4923;52.520;13.494;2023-04-24T10:50:27;21.10;1.00
9768;DHT22;4923;52.520;13.494;2023-04-24T10:53:18;20.70;1.00
9768;DHT22;4923;52.520;13.494;2023-04-24T10:56:06;20.30;1.00
9768;DHT22;4923;52.520;13.494;2023-04-24T10:58:55;20.10;1.00
9768;DHT22;4923;52.520;13.494;2023-04-24T11:01:52;20.00;1.00
9768;DHT22;4923;52.520;13.494;2023-04-24T11:04:39;20.00;1.00
9768;DHT22;4923;52.520;13.494;2023-04-24T11:07:28;20.00;1.00
9768;DHT22;4923;52.520;13.494;2023-04-24T11:10:26;20.00;1.00
9768;DHT22;4923;52.520;13.494;2023-04-24T11:13:15;20.10;1.00
9768;DHT22;4923;52.520;13.494;2023-04-24T11:16:21;20.20;1.00
9768;DHT22;4923;52.520;13.494;2023-04-24T11:19:09;20.40;1.00
9768;DHT22;4923;52.520;13.494;2023-04-24T11:21:59;20.50;1.00
9768;DHT22;4923;52.520;13.494;2023-04-24T11:24:49;20.80;1.00
9768;DHT22;4923;52.520;13.494;2023-04-24T11:27:41;21.10;1.00
9768;DHT22;4923;52.520;13.494;2023-04-24T11:30:29;20.80;1.00
9768;DHT22;4923;52.520;13.494;2023-04-24T11:33:19;20.70;1.00
9768;DHT22;4923;52.520;13.494;2023-04-24T11:36:07;20.70;1.00
9768;DHT22;4923;52.520;13.494;2023-04-24T11:38:54;20.40;1.00
9768;DHT22;4923;52.520;13.494;2023-04-24T11:41:41;20.20;1.00
9768;DHT22;4923;52.520;13.494;2023-04-24T11:44:29;19.60;1.00
9768;DHT22;4923;52.520;13.494;2023-04-24T11:47:17;18.70;1.00
9768;DHT22;4923;52.520;13.494;2023-04-24T11:50:06;17.60;1.00
9768;DHT22;4923;52.520;13.494;2023-04-24T11:52:54;17.30;1.00
9768;DHT22;4923;52.520;13.494;2023-04-24T11:55:41;17.30;1.00
9768;DHT22;4923;52.520;13.494;2023-04-24T11:58:28;17.80;1.00
9768;DHT22;4923;52.520;13.494;2023-04-24T12:01:16;18.20;1.00
9768;DHT22;4923;52.520;13.494;2023-04-24T12:04:03;18.70;1.00
9768;DHT22;4923;52.520;13.494;2023-04-24T12:06:59;19.10;1.00
9768;DHT22;4923;52.520;13.494;2023-04-24T12:09:48;19.40;1.00
9768;DHT22;4923;52.520;13.494;2023-04-24T12:12:35;19.40;1.00
9768;DHT22;4923;52.520;13.494;2023-04-24T12:15:23;19.50;1.00
9768;DHT22;4923;52.520;13.494;2023-04-24T12:18:12;19.70;1.00
9768;DHT22;4923;52.520;13.494;2023-04-24T12:21:16;19.80;1.00
9768;DHT22;4923;52.520;13.494;2023-04-24T12:24:06;19.70;1.00
9768;DHT22;4923;52.520;13.494;2023-04-24T12:26:53;19.60;1.00
9768;DHT22;4923;52.520;13.494;2023-04-24T12:29:51;19.80;1.00
9768;DHT22;4923;52.520;13.494;2023-04-24T12:32:41;19.90;1.00
9768;DHT22;4923;52.520;13.494;2023-04-24T12:35:32;20.00;1.00
9768;DHT22;4923;52.520;13.494;2023-04-24T12:38:22;19.90;1.00
9768;DHT22;4923;52.520;13.494;2023-04-24T12:41:13;19.70;1.00
9768;DHT22;4923;52.520;13.494;2023-04-24T12:44:00;20.00;1.00
9768;DHT22;4923;52.520;13.494;2023-04-24T12:46:47;19.80;1.00
9768;DHT22;4923;52.520;13.494;2023-04-24T12:49:34;19.70;1.00
9768;DHT22;4923;52.520;13.494;2023-04-24T12:52:23;19.50;1.00
9768;DHT22;4923;52.520;13.494;2023-04-24T12:55:11;19.60;1.00
9768;DHT22;4923;52.520;13.494;2023-04-24T12:57:58;19.80;1.00
9768;DHT22;4923;52.520;13.494;2023-04-24T13:00:45;20.00;1.00
9768;DHT22;4923;52.520;13.494;2023-04-24T13:03:32;20.30;1.00
9768;DHT22;4923;52.520;13.494;2023-04-24T13:06:19;20.40;1.00
9768;DHT22;4923;52.520;13.494;2023-04-24T13:09:08;20.60;1.00
9768;DHT22;4923;52.520;13.494;2023-04-24T13:11:55;20.60;1.00
9768;DHT22;4923;52.520;13.494;2023-04-24T13:14:42;20.70;1.00
9768;DHT22;4923;52.520;13.494;2023-04-24T13:17:29;20.60;1.00
9768;DHT22;4923;52.520;13.494;2023-04-24T13:20:16;20.50;1.00
9768;DHT22;4923;52.520;13.494;2023-04-24T13:23:03;20.30;1.00
9768;DHT22;4923;52.520;13.494;2023-04-24T13:25:51;20.30;1.00
9768;DHT22;4923;52.520;13.494;2023-04-24T13:28:40;20.40;1.00
9768;DHT22;4923;52.520;13.494;2023-04-24T13:31:27;20.60;1.00
9768;DHT22;4923;52.520;13.494;2023-04-24T13:34:15;20.80;1.00
9768;DHT22;4923;52.520;13.494;2023-04-24T13:37:03;21.00;1.00
9768;DHT22;4923;52.520;13.494;2023-04-24T13:39:50;21.00;1.00
9768;DHT22;4923;52.520;13.494;2023-04-24T13:42:39;20.50;1.00
9768;DHT22;4923;52.520;13.494;2023-04-24T13:45:26;20.40;1.00
9768;DHT22;4923;52.520;13.494;2023-04-24T13:48:13;20.10;1.00
9768;DHT22;4923;52.520;13.494;2023-04-24T13:51:01;20.20;1.00
9768;DHT22;4923;52.520;13.494;2023-04-24T13:53:48;20.00;1.00
9768;DHT22;4923;52.520;13.494;2023-04-24T13:56:34;19.90;1.00
9768;DHT22;4923;52.520;13.494;2023-04-24T13:59:23;19.60;1.00
9768;DHT22;4923;52.520;13.494;2023-04-24T14:02:10;20.00;1.00
9768;DHT22;4923;52.520;13.494;2023-04-24T14:04:57;20.00;1.00
9768;DHT22;4923;52.520;13.494;2023-04-24T14:07:44;20.10;1.00
9768;DHT22;4923;52.520;13.494;2023-04-24T14:10:31;20.10;1.00
9768;DHT22;4923;52.520;13.494;2023-04-24T14:13:18;19.80;1.00
9768;DHT22;4923;52.520;13.494;2023-04-24T14:16:06;19.80;1.00
9768;DHT22;4923;52.520;13.494;2023-04-24T14:18:53;20.00;1.00
9768;DHT22;4923;52.520;13.494;2023-04-24T14:21:40;20.20;1.00
9768;DHT22;4923;52.520;13.494;2023-04-24T14:24:27;20.30;1.00
9768;DHT22;4923;52.520;13.494;2023-04-24T14:27:14;20.40;1.00
9768;DHT22;4923;52.520;13.494;2023-04-24T14:30:01;20.10;1.00
9768;DHT22;4923;52.520;13.494;2023-04-24T14:32:49;19.80;1.00
9768;DHT22;4923;52.520;13.494;2023-04-24T14:35:36;19.50;1.00
9768;DHT22;4923;52.520;13.494;2023-04-24T14:38:23;19.20;1.00
9768;DHT22;4923;52.520;13.494;2023-04-24T14:41:10;19.20;1.00
9768;DHT22;4923;52.520;13.494;2023-04-24T14:43:57;19.40;1.00
9768;DHT22;4923;52.520;13.494;2023-04-24T14:46:44;19.60;1.00
9768;DHT22;4923;52.520;13.494;2023-04-24T14:49:32;19.70;1.00
9768;DHT22;4923;52.520;13.494;2023-04-24T14:52:19;19.50;1.00
9768;DHT22;4923;52.520;13.494;2023-04-24T14:55:07;19.10;1.00
9768;DHT22;4923;52.520;13.494;2023-04-24T14:57:54;18.70;1.00
9768;DHT22;4923;52.520;13.494;2023-04-24T15:00:41;18.60;1.00
9768;DHT22;4923;52.520;13.494;2023-04-24T15:03:28;18.80;1.00
9768;DHT22;4923;52.520;13.494;2023-04-24T15:06:17;19.10;1.00
9768;DHT22;4923;52.520;13.494;2023-04-24T15:09:05;19.40;1.00
9768;DHT22;4923;52.520;13.494;2023-04-24T15:11:52;19.40;1.00
9768;DHT22;4923;52.520;13.494;2023-04-24T15:14:39;19.20;1.00
9768;DHT22;4923;52.520;13.494;2023-04-24T15:17:26;18.90;1.00
9768;DHT22;4923;52.520;13.494;2023-04-24T15:20:13;18.80;1.00
9768;DHT22;4923;52.520;13.494;2023-04-24T15:23:01;18.80;1.00
9768;DHT22;4923;52.520;13.494;2023-04-24T15:25:48;18.70;1.00
9768;DHT22;4923;52.520;13.494;2023-04-24T15:28:35;18.70;1.00
9768;DHT22;4923;52.520;13.494;2023-04-24T15:31:22;18.60;1.00
9768;DHT22;4923;52.520;13.494;2023-04-24T15:34:09;18.60;1.00
9768;DHT22;4923;52.520;13.494;2023-04-24T15:36:55;18.60;1.00
9768;DHT22;4923;52.520;13.494;2023-04-24T15:39:44;18.80;1.00
9768;DHT22;4923;52.520;13.494;2023-04-24T15:42:31;18.70;1.00
9768;DHT22;4923;52.520;13.494;2023-04-24T15:45:18;18.40;1.00
9768;DHT22;4923;52.520;13.494;2023-04-24T15:48:05;18.00;1.00
9768;DHT22;4923;52.520;13.494;2023-04-24T15:50:52;17.80;1.00
9768;DHT22;4923;52.520;13.494;2023-04-24T15:53:39;17.40;1.00
9768;DHT22;4923;52.520;13.494;2023-04-24T15:56:27;17.30;1.00
9768;DHT22;4923;52.520;13.494;2023-04-24T15:59:14;17.10;1.00
9768;DHT22;4923;52.520;13.494;2023-04-24T16:02:01;17.10;1.00
9768;DHT22;4923;52.520;13.494;2023-04-24T16:04:50;17.10;1.00
9768;DHT22;4923;52.520;13.494;2023-04-24T16:07:38;17.20;1.00
9768;DHT22;4923;52.520;13.494;2023-04-24T16:10:25;17.30;1.00
9768;DHT22;4923;52.520;13.494;2023-04-24T16:13:14;17.20;1.00
9768;DHT22;4923;52.520;13.494;2023-04-24T16:16:03;17.10;1.00
9768;DHT22;4923;52.520;13.494;2023-04-24T16:18:50;17.00;1.00
9768;DHT22;4923;52.520;13.494;2023-04-24T16:21:38;16.90;1.00
9768;DHT22;4923;52.520;13.494;2023-04-24T16:24:25;16.80;1.00
9768;DHT22;4923;52.520;13.494;2023-04-24T16:27:13;16.70;1.00
9768;DHT22;4923;52.520;13.494;2023-04-24T16:30:02;16.50;1.00
9768;DHT22;4923;52.520;13.494;2023-04-24T16:32:49;16.50;1.00
9768;DHT22;4923;52.520;13.494;2023-04-24T16:35:36;16.30;1.00
9768;DHT22;4923;52.520;13.494;2023-04-24T16:38:23;16.30;1.00
9768;DHT22;4923;52.520;13.494;2023-04-24T16:41:11;16.20;1.00
9768;DHT22;4923;52.520;13.494;2023-04-24T16:43:58;16.10;1.00
9768;DHT22;4923;52.520;13.494;2023-04-24T16:46:46;16.10;1.00
9768;DHT22;4923;52.520;13.494;2023-04-24T16:49:33;15.90;1.00
9768;DHT22;4923;52.520;13.494;2023-04-24T16:52:20;15.90;1.00
9768;DHT22;4923;52.520;13.494;2023-04-24T16:55:07;15.90;1.00
9768;DHT22;4923;52.520;13.494;2023-04-24T16:57:55;15.90;1.00
9768;DHT22;4923;52.520;13.494;2023-04-24T17:00:42;15.90;1.00
9768;DHT22;4923;52.520;13.494;2023-04-24T17:03:30;15.60;1.00
9768;DHT22;4923;52.520;13.494;2023-04-24T17:06:17;15.30;1.00
9768;DHT22;4923;52.520;13.494;2023-04-24T17:09:04;15.10;1.00
9768;DHT22;4923;52.520;13.494;2023-04-24T17:11:51;15.00;1.00
9768;DHT22;4923;52.520;13.494;2023-04-24T17:14:38;15.00;1.00
9768;DHT22;4923;52.520;13.494;2023-04-24T17:17:25;14.80;1.00
9768;DHT22;4923;52.520;13.494;2023-04-24T17:20:13;14.70;1.00
9768;DHT22;4923;52.520;13.494;2023-04-24T17:23:00;14.50;1.00
9768;DHT22;4923;52.520;13.494;2023-04-24T17:25:47;14.30;1.00
9768;DHT22;4923;52.520;13.494;2023-04-24T17:28:34;14.20;1.00
9768;DHT22;4923;52.520;13.494;2023-04-24T17:31:21;14.10;1.00
9768;DHT22;4923;52.520;13.494;2023-04-24T17:34:08;13.90;1.00
9768;DHT22;4923;52.520;13.494;2023-04-24T17:36:57;13.70;1.00
9768;DHT22;4923;52.520;13.494;2023-04-24T17:39:44;13.60;1.00
9768;DHT22;4923;52.520;13.494;2023-04-24T17:42:31;13.50;1.00
9768;DHT22;4923;52.520;13.494;2023-04-24T17:45:18;13.40;1.00
9768;DHT22;4923;52.520;13.494;2023-04-24T17:48:05;13.30;1.00
9768;DHT22;4923;52.520;13.494;2023-04-24T17:50:52;13.30;1.00
9768;DHT22;4923;52.520;13.494;2023-04-24T17:53:40;13.30;1.00
9768;DHT22;4923;52.520;13.494;2023-04-24T17:56:27;13.20;1.00
9768;DHT22;4923;52.520;13.494;2023-04-24T17:59:14;13.10;1.00
9768;DHT22;4923;52.520;13.494;2023-04-24T18:02:01;13.00;1.00
9768;DHT22;4923;52.520;13.494;2023-04-24T18:04:48;12.80;1.00
9768;DHT22;4923;52.520;13.494;2023-04-24T18:07:35;12.70;1.00
9768;DHT22;4923;52.520;13.494;2023-04-24T18:10:25;12.60;1.00
9768;DHT22;4923;52.520;13.494;2023-04-24T18:13:12;12.50;1.00